sensor_id;sensor_type;location;lat;lon;timestamp;pressure;altitude;pressure_sealevel;temperature;humidity
18275;BME280;19470;49.322;7.218;2023-10-08T00:01:17;99616.88;;;16.64;100.00
18275;BME280;19470;49.322;7.218;2023-10-08T00:03:44;99616.44;;;16.72;100.00
18275;BME280;19470;49.322;7.218;2023-10-08T00:06:14;99616.47;;;16.40;100.00
18275;BME280;19470;49.322;7.218;2023-10-08T00:08:41;99616.34;;;16.62;100.00
18275;BME280;19470;49.322;7.218;2023-10-08T00:11:09;99618.53;;;16.70;100.00
18275;BME280;19470;49.322;7.218;2023-10-08T00:13:37;99604.81;;;16.99;100.00
18275;BME280;19470;49.322;7.218;2023-10-08T00:16:06;99611.06;;;17.25;100.00
18275;BME280;19470;49.322;7.218;2023-10-08T00:18:36;99613.56;;;17.52;100.00
18275;BME280;19470;49.322;7.218;2023-10-08T00:21:03;99621.59;;;17.62;100.00
18275;BME280;19470;49.322;7.218;2023-10-08T00:23:43;99616.81;;;17.69;100.00
18275;BME280;19470;49.322;7.218;2023-10-08T00:26:16;99619.84;;;17.15;100.00
18275;BME280;19470;49.322;7.218;2023-10-08T00:28:55;99602.56;;;17.48;100.00
18275;BME280;19470;49.322;7.218;2023-10-08T00:31:22;99613.00;;;16.82;100.00
18275;BME280;19470;49.322;7.218;2023-10-08T00:33:52;99615.03;;;16.70;100.00
18275;BME280;19470;49.322;7.218;2023-10-08T00:36:18;99601.53;;;16.86;100.00
18275;BME280;19470;49.322;7.218;2023-10-08T00:38:45;99599.91;;;16.80;100.00
18275;BME280;19470;49.322;7.218;2023-10-08T00:41:17;99596.97;;;16.87;100.00
18275;BME280;19470;49.322;7.218;2023-10-08T00:43:47;99602.63;;;16.91;100.00
18275;BME280;19470;49.322;7.218;2023-10-08T00:46:15;99593.03;;;17.00;100.00
18275;BME280;19470;49.322;7.218;2023-10-08T00:48:44;99596.25;;;17.07;100.00
18275;BME280;19470;49.322;7.218;2023-10-08T00:51:11;99596.56;;;17.16;100.00
18275;BME280;19470;49.322;7.218;2023-10-08T00:53:54;99598.56;;;17.56;100.00
18275;BME280;19470;49.322;7.218;2023-10-08T00:56:27;99599.41;;;16.94;100.00
18275;BME280;19470;49.322;7.218;2023-10-08T00:59:10;99600.41;;;16.77;100.00
18275;BME280;19470;49.322;7.218;2023-10-08T01:01:41;99599.38;;;16.89;100.00
18275;BME280;19470;49.322;7.218;2023-10-08T01:04:15;99602.66;;;17.01;100.00
18275;BME280;19470;49.322;7.218;2023-10-08T01:06:42;99594.88;;;16.94;100.00
18275;BME280;19470;49.322;7.218;2023-10-08T01:09:09;99601.59;;;17.02;100.00
18275;BME280;19470;49.322;7.218;2023-10-08T01:11:44;99598.72;;;16.66;100.00
18275;BME280;19470;49.322;7.218;2023-10-08T01:14:15;99596.44;;;16.85;100.00
18275;BME280;19470;49.322;7.218;2023-10-08T01:16:44;99601.03;;;16.95;100.00
18275;BME280;19470;49.322;7.218;2023-10-08T01:19:18;99596.19;;;16.86;100.00
18275;BME280;19470;49.322;7.218;2023-10-08T01:21:44;99600.44;;;16.82;100.00
18275;BME280;19470;49.322;7.218;2023-10-08T01:24:14;99594.94;;;16.62;100.00
18275;BME280;19470;49.322;7.218;2023-10-08T01:26:42;99578.09;;;16.61;100.00
18275;BME280;19470;49.322;7.218;2023-10-08T01:29:09;99588.97;;;16.50;100.00
18275;BME280;19470;49.322;7.218;2023-10-08T01:31:44;99580.97;;;16.50;100.00
18275;BME280;19470;49.322;7.218;2023-10-08T01:34:10;99582.13;;;16.27;100.00
18275;BME280;19470;49.322;7.218;2023-10-08T01:36:41;99584.97;;;16.10;100.00
18275;BME280;19470;49.322;7.218;2023-10-08T01:39:09;99580.38;;;16.38;100.00
18275;BME280;19470;49.322;7.218;2023-10-08T01:41:43;99581.44;;;16.42;100.00
18275;BME280;19470;49.322;7.218;2023-10-08T01:44:09;99577.44;;;16.39;100.00
18275;BME280;19470;49.322;7.218;2023-10-08T01:46:35;99581.88;;;16.23;100.00
18275;BME280;19470;49.322;7.218;2023-10-08T01:49:05;99575.22;;;16.31;100.00
18275;BME280;19470;49.322;7.218;2023-10-08T01:51:38;99579.03;;;16.03;100.00
18275;BME280;19470;49.322;7.218;2023-10-08T01:54:12;99570.50;;;16.06;100.00
18275;BME280;19470;49.322;7.218;2023-10-08T01:56:44;99573.97;;;16.06;100.00
18275;BME280;19470;49.322;7.218;2023-10-08T01:59:11;99576.47;;;16.18;100.00
18275;BME280;19470;49.322;7.218;2023-10-08T02:01:39;99575.81;;;16.01;100.00
18275;BME280;19470;49.322;7.218;2023-10-08T02:04:06;99573.53;;;15.82;100.00
18275;BME280;19470;49.322;7.218;2023-10-08T02:06:34;99578.13;;;15.92;100.00
18275;BME280;19470;49.322;7.218;2023-10-08T02:09:00;99568.47;;;15.86;100.00
18275;BME280;19470;49.322;7.218;2023-10-08T02:11:41;99559.50;;;15.70;100.00
18275;BME280;19470;49.322;7.218;2023-10-08T02:14:09;99564.84;;;15.43;100.00
18275;BME280;19470;49.322;7.218;2023-10-08T02:16:36;99567.84;;;15.52;100.00
18275;BME280;19470;49.322;7.218;2023-10-08T02:19:03;99557.00;;;15.86;100.00
18275;BME280;19470;49.322;7.218;2023-10-08T02:21:30;99557.34;;;15.99;100.00
18275;BME280;19470;49.322;7.218;2023-10-08T02:23:56;99556.31;;;16.00;100.00
18275;BME280;19470;49.322;7.218;2023-10-08T02:26:23;99555.44;;;15.95;100.00
18275;BME280;19470;49.322;7.218;2023-10-08T02:28:49;99553.03;;;15.93;100.00
18275;BME280;19470;49.322;7.218;2023-10-08T02:31:18;99554.06;;;15.87;100.00
18275;BME280;19470;49.322;7.218;2023-10-08T02:33:45;99548.91;;;15.80;100.00
18275;BME280;19470;49.322;7.218;2023-10-08T02:36:11;99547.09;;;15.59;100.00
18275;BME280;19470;49.322;7.218;2023-10-08T02:38:39;99557.69;;;15.49;100.00
18275;BME280;19470;49.322;7.218;2023-10-08T02:41:05;99551.03;;;15.78;100.00
18275;BME280;19470;49.322;7.218;2023-10-08T02:43:33;99562.34;;;15.86;100.00
18275;BME280;19470;49.322;7.218;2023-10-08T02:46:02;99562.94;;;15.66;100.00
18275;BME280;19470;49.322;7.218;2023-10-08T02:48:33;99565.19;;;15.52;100.00
18275;BME280;19470;49.322;7.218;2023-10-08T02:51:00;99560.19;;;15.33;100.00
18275;BME280;19470;49.322;7.218;2023-10-08T02:53:36;99554.66;;;15.40;100.00
18275;BME280;19470;49.322;7.218;2023-10-08T02:56:03;99555.69;;;15.34;100.00
18275;BME280;19470;49.322;7.218;2023-10-08T02:58:37;99569.97;;;15.50;100.00
18275;BME280;19470;49.322;7.218;2023-10-08T03:01:04;99563.31;;;15.52;100.00
18275;BME280;19470;49.322;7.218;2023-10-08T03:03:30;99560.81;;;15.41;100.00
18275;BME280;19470;49.322;7.218;2023-10-08T03:05:59;99555.31;;;15.25;100.00
18275;BME280;19470;49.322;7.218;2023-10-08T03:08:26;99552.91;;;15.02;100.00
18275;BME280;19470;49.322;7.218;2023-10-08T03:10:56;99564.50;;;15.13;100.00
18275;BME280;19470;49.322;7.218;2023-10-08T03:13:28;99569.88;;;15.40;100.00
18275;BME280;19470;49.322;7.218;2023-10-08T03:15:54;99573.19;;;15.52;100.00
18275;BME280;19470;49.322;7.218;2023-10-08T03:18:33;99578.75;;;15.45;100.00
18275;BME280;19470;49.322;7.218;2023-10-08T03:21:03;99580.44;;;15.29;100.00
18275;BME280;19470;49.322;7.218;2023-10-08T03:23:30;99586.22;;;15.21;100.00
18275;BME280;19470;49.322;7.218;2023-10-08T03:26:01;99592.72;;;15.30;100.00
18275;BME280;19470;49.322;7.218;2023-10-08T03:28:34;99592.31;;;15.17;100.00
18275;BME280;19470;49.322;7.218;2023-10-08T03:31:01;99585.16;;;15.22;100.00
18275;BME280;19470;49.322;7.218;2023-10-08T03:33:32;99579.75;;;15.66;100.00
18275;BME280;19470;49.322;7.218;2023-10-08T03:36:02;99579.53;;;15.68;100.00
18275;BME280;19470;49.322;7.218;2023-10-08T03:38:36;99581.75;;;15.27;100.00
18275;BME280;19470;49.322;7.218;2023-10-08T03:41:22;99579.63;;;15.29;100.00
18275;BME280;19470;49.322;7.218;2023-10-08T03:43:53;99583.88;;;15.25;100.00
18275;BME280;19470;49.322;7.218;2023-10-08T03:46:26;99579.97;;;15.38;100.00
18275;BME280;19470;49.322;7.218;2023-10-08T03:48:52;99573.00;;;14.88;100.00
18275;BME280;19470;49.322;7.218;2023-10-08T03:51:24;99580.75;;;14.89;100.00
18275;BME280;19470;49.322;7.218;2023-10-08T03:53:52;99576.19;;;15.06;100.00
18275;BME280;19470;49.322;7.218;2023-10-08T03:56:36;99569.88;;;15.40;100.00
18275;BME280;19470;49.322;7.218;2023-10-08T03:59:03;99564.63;;;15.50;100.00
18275;BME280;19470;49.322;7.218;2023-10-08T04:01:37;99572.13;;;15.26;100.00
18275;BME280;19470;49.322;7.218;2023-10-08T04:04:05;99559.00;;;15.73;100.00
18275;BME280;19470;49.322;7.218;2023-10-08T04:06:38;99567.75;;;15.96;100.00
18275;BME280;19470;49.322;7.218;2023-10-08T04:09:12;99568.13;;;16.09;100.00
18275;BME280;19470;49.322;7.218;2023-10-08T04:11:49;99569.09;;;15.98;100.00
18275;BME280;19470;49.322;7.218;2023-10-08T04:14:19;99566.47;;;16.03;100.00
18275;BME280;19470;49.322;7.218;2023-10-08T04:16:45;99559.41;;;16.24;100.00
18275;BME280;19470;49.322;7.218;2023-10-08T04:19:12;99559.19;;;15.94;100.00
18275;BME280;19470;49.322;7.218;2023-10-08T04:21:44;99561.50;;;15.85;100.00
18275;BME280;19470;49.322;7.218;2023-10-08T04:24:20;99563.88;;;16.14;100.00
18275;BME280;19470;49.322;7.218;2023-10-08T04:26:53;99553.84;;;15.94;100.00
18275;BME280;19470;49.322;7.218;2023-10-08T04:29:21;99551.09;;;16.21;100.00
18275;BME280;19470;49.322;7.218;2023-10-08T04:31:48;99553.00;;;15.88;100.00
18275;BME280;19470;49.322;7.218;2023-10-08T04:34:26;99553.63;;;16.38;100.00
18275;BME280;19470;49.322;7.218;2023-10-08T04:36:54;99544.63;;;16.12;100.00
18275;BME280;19470;49.322;7.218;2023-10-08T04:39:26;99545.84;;;15.99;100.00
18275;BME280;19470;49.322;7.218;2023-10-08T04:41:57;99544.31;;;16.08;100.00
18275;BME280;19470;49.322;7.218;2023-10-08T04:44:30;99532.09;;;16.17;100.00
18275;BME280;19470;49.322;7.218;2023-10-08T04:46:57;99533.44;;;16.15;100.00
18275;BME280;19470;49.322;7.218;2023-10-08T04:49:30;99537.75;;;16.21;100.00
18275;BME280;19470;49.322;7.218;2023-10-08T04:52:01;99535.84;;;16.16;100.00
18275;BME280;19470;49.322;7.218;2023-10-08T04:54:33;99537.97;;;16.14;100.00
18275;BME280;19470;49.322;7.218;2023-10-08T04:57:06;99534.78;;;15.85;100.00
18275;BME280;19470;49.322;7.218;2023-10-08T04:59:40;99556.28;;;15.95;100.00
18275;BME280;19470;49.322;7.218;2023-10-08T05:02:08;99551.16;;;15.94;100.00
18275;BME280;19470;49.322;7.218;2023-10-08T05:04:50;99565.09;;;15.96;100.00
18275;BME280;19470;49.322;7.218;2023-10-08T05:07:34;99562.06;;;16.19;100.00
18275;BME280;19470;49.322;7.218;2023-10-08T05:10:26;99559.00;;;16.43;100.00
18275;BME280;19470;49.322;7.218;2023-10-08T05:13:26;99559.91;;;16.21;100.00
18275;BME280;19470;49.322;7.218;2023-10-08T05:15:58;99548.38;;;15.78;100.00
18275;BME280;19470;49.322;7.218;2023-10-08T05:18:41;99562.28;;;15.53;100.00
18275;BME280;19470;49.322;7.218;2023-10-08T05:21:33;99561.66;;;15.46;100.00
18275;BME280;19470;49.322;7.218;2023-10-08T05:24:18;99561.78;;;15.29;100.00
18275;BME280;19470;49.322;7.218;2023-10-08T05:26:53;99554.56;;;15.30;100.00
18275;BME280;19470;49.322;7.218;2023-10-08T05:29:39;99540.41;;;15.56;100.00
18275;BME280;19470;49.322;7.218;2023-10-08T05:32:22;99554.25;;;15.26;100.00
18275;BME280;19470;49.322;7.218;2023-10-08T05:35:09;99554.44;;;14.54;100.00
18275;BME280;19470;49.322;7.218;2023-10-08T05:37:53;99547.31;;;14.81;100.00
18275;BME280;19470;49.322;7.218;2023-10-08T05:40:39;99543.22;;;14.96;100.00
18275;BME280;19470;49.322;7.218;2023-10-08T05:43:23;99541.81;;;14.88;100.00
18275;BME280;19470;49.322;7.218;2023-10-08T05:46:12;99556.38;;;14.80;100.00
18275;BME280;19470;49.322;7.218;2023-10-08T05:49:04;99567.69;;;14.88;100.00
18275;BME280;19470;49.322;7.218;2023-10-08T05:51:51;99567.28;;;15.23;100.00
18275;BME280;19470;49.322;7.218;2023-10-08T05:54:36;99584.28;;;15.39;100.00
18275;BME280;19470;49.322;7.218;2023-10-08T05:57:14;99592.09;;;15.23;100.00
18275;BME280;19470;49.322;7.218;2023-10-08T05:59:50;99597.09;;;14.93;100.00
18275;BME280;19470;49.322;7.218;2023-10-08T06:02:40;99597.31;;;15.13;100.00
18275;BME280;19470;49.322;7.218;2023-10-08T06:05:13;99587.81;;;15.22;100.00
18275;BME280;19470;49.322;7.218;2023-10-08T06:07:50;99585.38;;;15.43;100.00
18275;BME280;19470;49.322;7.218;2023-10-08T06:10:22;99598.22;;;15.68;100.00
18275;BME280;19470;49.322;7.218;2023-10-08T06:13:10;99604.00;;;15.38;100.00
18275;BME280;19470;49.322;7.218;2023-10-08T06:15:40;99610.91;;;14.90;100.00
18275;BME280;19470;49.322;7.218;2023-10-08T06:18:14;99613.69;;;15.00;100.00
18275;BME280;19470;49.322;7.218;2023-10-08T06:20:40;99613.16;;;14.98;100.00
18275;BME280;19470;49.322;7.218;2023-10-08T06:23:09;99606.38;;;15.12;100.00
18275;BME280;19470;49.322;7.218;2023-10-08T06:25:38;99611.41;;;15.08;100.00
18275;BME280;19470;49.322;7.218;2023-10-08T06:28:13;99613.22;;;15.03;100.00
18275;BME280;19470;49.322;7.218;2023-10-08T06:30:40;99616.88;;;14.97;100.00
18275;BME280;19470;49.322;7.218;2023-10-08T06:33:07;99614.81;;;15.04;100.00
18275;BME280;19470;49.322;7.218;2023-10-08T06:35:34;99628.66;;;15.01;100.00
18275;BME280;19470;49.322;7.218;2023-10-08T06:38:01;99623.94;;;15.08;100.00
18275;BME280;19470;49.322;7.218;2023-10-08T06:40:33;99628.97;;;15.26;100.00
18275;BME280;19470;49.322;7.218;2023-10-08T06:43:08;99632.63;;;15.42;100.00
18275;BME280;19470;49.322;7.218;2023-10-08T06:45:41;99630.38;;;15.56;100.00
18275;BME280;19470;49.322;7.218;2023-10-08T06:48:09;99633.94;;;15.40;100.00
18275;BME280;19470;49.322;7.218;2023-10-08T06:50:43;99629.19;;;15.47;100.00
18275;BME280;19470;49.322;7.218;2023-10-08T06:53:10;99650.13;;;15.77;100.00
18275;BME280;19470;49.322;7.218;2023-10-08T06:55:39;99644.13;;;15.92;100.00
18275;BME280;19470;49.322;7.218;2023-10-08T06:58:06;99637.69;;;16.20;100.00
18275;BME280;19470;49.322;7.218;2023-10-08T07:00:34;99642.63;;;16.33;100.00
18275;BME280;19470;49.322;7.218;2023-10-08T07:03:07;99636.56;;;16.48;100.00
18275;BME280;19470;49.322;7.218;2023-10-08T07:05:36;99634.59;;;16.70;100.00
18275;BME280;19470;49.322;7.218;2023-10-08T07:08:06;99630.09;;;16.76;100.00
18275;BME280;19470;49.322;7.218;2023-10-08T07:10:34;99632.81;;;16.81;100.00
18275;BME280;19470;49.322;7.218;2023-10-08T07:13:00;99626.91;;;16.84;100.00
18275;BME280;19470;49.322;7.218;2023-10-08T07:15:29;99633.97;;;17.00;100.00
18275;BME280;19470;49.322;7.218;2023-10-08T07:17:56;99628.38;;;17.07;100.00
18275;BME280;19470;49.322;7.218;2023-10-08T07:20:23;99633.88;;;17.43;100.00
18275;BME280;19470;49.322;7.218;2023-10-08T07:22:50;99641.94;;;17.48;99.47
18275;BME280;19470;49.322;7.218;2023-10-08T07:25:21;99642.06;;;17.99;97.71
18275;BME280;19470;49.322;7.218;2023-10-08T07:27:47;99644.19;;;17.92;97.41
18275;BME280;19470;49.322;7.218;2023-10-08T07:30:14;99644.22;;;18.17;95.26
18275;BME280;19470;49.322;7.218;2023-10-08T07:32:52;99635.63;;;18.46;93.53
18275;BME280;19470;49.322;7.218;2023-10-08T07:35:20;99642.59;;;18.57;91.56
18275;BME280;19470;49.322;7.218;2023-10-08T07:37:55;99642.81;;;18.91;90.61
18275;BME280;19470;49.322;7.218;2023-10-08T07:40:35;99639.03;;;19.02;89.26
18275;BME280;19470;49.322;7.218;2023-10-08T07:43:02;99649.00;;;18.97;89.37
18275;BME280;19470;49.322;7.218;2023-10-08T07:45:34;99645.06;;;19.33;88.09
18275;BME280;19470;49.322;7.218;2023-10-08T07:48:01;99645.50;;;19.61;85.96
18275;BME280;19470;49.322;7.218;2023-10-08T07:50:31;99647.78;;;19.38;86.90
18275;BME280;19470;49.322;7.218;2023-10-08T07:53:02;99648.78;;;19.48;86.77
18275;BME280;19470;49.322;7.218;2023-10-08T07:55:31;99651.06;;;19.75;84.32
18275;BME280;19470;49.322;7.218;2023-10-08T07:57:58;99656.25;;;19.56;86.52
18275;BME280;19470;49.322;7.218;2023-10-08T08:00:26;99653.16;;;20.22;83.62
18275;BME280;19470;49.322;7.218;2023-10-08T08:02:56;99646.31;;;20.06;84.03
18275;BME280;19470;49.322;7.218;2023-10-08T08:05:23;99657.50;;;19.79;85.97
18275;BME280;19470;49.322;7.218;2023-10-08T08:07:50;99665.13;;;20.06;83.12
18275;BME280;19470;49.322;7.218;2023-10-08T08:10:21;99679.47;;;20.30;80.98
18275;BME280;19470;49.322;7.218;2023-10-08T08:12:49;99671.06;;;20.03;83.02
18275;BME280;19470;49.322;7.218;2023-10-08T08:15:17;99678.19;;;20.23;81.67
18275;BME280;19470;49.322;7.218;2023-10-08T08:17:44;99691.97;;;19.66;84.68
18275;BME280;19470;49.322;7.218;2023-10-08T08:20:15;99689.94;;;20.32;81.77
18275;BME280;19470;49.322;7.218;2023-10-08T08:22:45;99696.31;;;20.07;82.39
18275;BME280;19470;49.322;7.218;2023-10-08T08:25:15;99695.31;;;20.71;79.83
18275;BME280;19470;49.322;7.218;2023-10-08T08:27:55;99691.19;;;21.03;78.61
18275;BME280;19470;49.322;7.218;2023-10-08T08:30:22;99694.41;;;21.34;77.46
18275;BME280;19470;49.322;7.218;2023-10-08T08:32:51;99693.03;;;22.17;74.28
18275;BME280;19470;49.322;7.218;2023-10-08T08:35:21;99682.59;;;22.76;70.70
18275;BME280;19470;49.322;7.218;2023-10-08T08:37:50;99689.06;;;23.49;66.94
18275;BME280;19470;49.322;7.218;2023-10-08T08:40:18;99680.34;;;23.52;66.86
18275;BME280;19470;49.322;7.218;2023-10-08T08:42:47;99677.06;;;24.05;63.86
18275;BME280;19470;49.322;7.218;2023-10-08T08:45:19;99682.25;;;24.37;63.48
18275;BME280;19470;49.322;7.218;2023-10-08T08:47:47;99680.00;;;22.70;70.63
18275;BME280;19470;49.322;7.218;2023-10-08T08:50:14;99672.44;;;23.69;66.21
18275;BME280;19470;49.322;7.218;2023-10-08T08:52:42;99681.63;;;24.40;63.84
18275;BME280;19470;49.322;7.218;2023-10-08T08:55:13;99690.44;;;23.87;66.45
18275;BME280;19470;49.322;7.218;2023-10-08T08:57:44;99687.03;;;22.85;68.44
18275;BME280;19470;49.322;7.218;2023-10-08T09:00:12;99686.66;;;23.19;68.03
18275;BME280;19470;49.322;7.218;2023-10-08T09:02:41;99680.66;;;23.64;67.66
18275;BME280;19470;49.322;7.218;2023-10-08T09:05:10;99675.78;;;24.78;64.10
18275;BME280;19470;49.322;7.218;2023-10-08T09:07:56;99674.06;;;26.05;59.05
18275;BME280;19470;49.322;7.218;2023-10-08T09:10:24;99678.47;;;26.62;56.53
18275;BME280;19470;49.322;7.218;2023-10-08T09:12:53;99673.88;;;26.19;57.88
18275;BME280;19470;49.322;7.218;2023-10-08T09:15:23;99671.97;;;26.45;57.26
18275;BME280;19470;49.322;7.218;2023-10-08T09:17:52;99680.25;;;26.40;56.92
18275;BME280;19470;49.322;7.218;2023-10-08T09:20:20;99677.38;;;26.28;57.32
18275;BME280;19470;49.322;7.218;2023-10-08T09:23:05;99670.72;;;26.81;56.08
18275;BME280;19470;49.322;7.218;2023-10-08T09:25:33;99668.25;;;26.59;57.29
18275;BME280;19470;49.322;7.218;2023-10-08T09:27:59;99673.03;;;27.09;54.88
18275;BME280;19470;49.322;7.218;2023-10-08T09:30:28;99672.09;;;26.40;56.11
18275;BME280;19470;49.322;7.218;2023-10-08T09:32:57;99669.06;;;26.50;56.52
18275;BME280;19470;49.322;7.218;2023-10-08T09:35:24;99665.53;;;27.06;55.51
18275;BME280;19470;49.322;7.218;2023-10-08T09:37:53;99662.91;;;27.18;54.62
18275;BME280;19470;49.322;7.218;2023-10-08T09:40:20;99667.50;;;26.49;56.54
18275;BME280;19470;49.322;7.218;2023-10-08T09:42:47;99676.59;;;26.45;57.91
18275;BME280;19470;49.322;7.218;2023-10-08T09:45:14;99666.56;;;27.81;53.73
18275;BME280;19470;49.322;7.218;2023-10-08T09:47:44;99675.03;;;28.00;53.55
18275;BME280;19470;49.322;7.218;2023-10-08T09:50:21;99666.56;;;27.81;54.06
18275;BME280;19470;49.322;7.218;2023-10-08T09:52:56;99674.31;;;27.41;55.39
18275;BME280;19470;49.322;7.218;2023-10-08T09:55:27;99666.63;;;27.13;55.85
18275;BME280;19470;49.322;7.218;2023-10-08T09:57:54;99665.81;;;27.42;56.10
18275;BME280;19470;49.322;7.218;2023-10-08T10:00:23;99672.91;;;27.85;53.51
18275;BME280;19470;49.322;7.218;2023-10-08T10:02:57;99668.97;;;26.76;56.05
18275;BME280;19470;49.322;7.218;2023-10-08T10:05:30;99661.72;;;26.25;57.91
18275;BME280;19470;49.322;7.218;2023-10-08T10:07:59;99654.91;;;28.14;52.18
18275;BME280;19470;49.322;7.218;2023-10-08T10:10:26;99660.78;;;28.37;52.23
18275;BME280;19470;49.322;7.218;2023-10-08T10:12:53;99663.59;;;28.73;50.43
18275;BME280;19470;49.322;7.218;2023-10-08T10:15:24;99662.41;;;27.75;53.75
18275;BME280;19470;49.322;7.218;2023-10-08T10:17:51;99663.72;;;29.38;49.47
18275;BME280;19470;49.322;7.218;2023-10-08T10:20:20;99662.13;;;29.49;48.94
18275;BME280;19470;49.322;7.218;2023-10-08T10:22:48;99660.50;;;26.87;56.37
18275;BME280;19470;49.322;7.218;2023-10-08T10:25:16;99657.66;;;28.59;51.17
18275;BME280;19470;49.322;7.218;2023-10-08T10:28:21;99657.03;;;28.41;51.93
18275;BME280;19470;49.322;7.218;2023-10-08T10:30:48;99649.16;;;29.59;48.84
18275;BME280;19470;49.322;7.218;2023-10-08T10:33:14;99664.31;;;26.04;58.19
18275;BME280;19470;49.322;7.218;2023-10-08T10:35:41;99667.84;;;28.17;53.82
18275;BME280;19470;49.322;7.218;2023-10-08T10:38:10;99653.09;;;30.14;47.50
18275;BME280;19470;49.322;7.218;2023-10-08T10:40:39;99660.78;;;28.37;51.85
18275;BME280;19470;49.322;7.218;2023-10-08T10:43:06;99664.31;;;27.24;55.67
18275;BME280;19470;49.322;7.218;2023-10-08T10:45:34;99659.56;;;30.21;47.28
18275;BME280;19470;49.322;7.218;2023-10-08T10:48:06;99650.03;;;31.07;44.88
18275;BME280;19470;49.322;7.218;2023-10-08T10:50:47;99669.34;;;28.60;50.86
18275;BME280;19470;49.322;7.218;2023-10-08T10:53:35;99663.25;;;30.01;48.50
18275;BME280;19470;49.322;7.218;2023-10-08T10:56:11;99668.56;;;30.10;47.89
18275;BME280;19470;49.322;7.218;2023-10-08T10:58:45;99665.97;;;29.73;48.17
18275;BME280;19470;49.322;7.218;2023-10-08T11:01:11;99662.69;;;29.67;48.48
18275;BME280;19470;49.322;7.218;2023-10-08T11:03:49;99665.19;;;30.72;44.77
18275;BME280;19470;49.322;7.218;2023-10-08T11:06:17;99659.84;;;30.48;45.33
18275;BME280;19470;49.322;7.218;2023-10-08T11:08:49;99660.75;;;30.36;46.76
18275;BME280;19470;49.322;7.218;2023-10-08T11:11:18;99648.03;;;30.28;46.92
18275;BME280;19470;49.322;7.218;2023-10-08T11:13:44;99652.75;;;30.15;47.43
18275;BME280;19470;49.322;7.218;2023-10-08T11:16:17;99649.56;;;27.34;54.73
18275;BME280;19470;49.322;7.218;2023-10-08T11:18:47;99645.00;;;27.46;55.39
18275;BME280;19470;49.322;7.218;2023-10-08T11:21:16;99649.91;;;27.53;54.99
18275;BME280;19470;49.322;7.218;2023-10-08T11:23:49;99641.53;;;29.92;48.54
18275;BME280;19470;49.322;7.218;2023-10-08T11:26:21;99652.28;;;28.50;52.22
18275;BME280;19470;49.322;7.218;2023-10-08T11:28:57;99650.75;;;28.62;51.59
18275;BME280;19470;49.322;7.218;2023-10-08T11:31:27;99648.44;;;27.56;55.12
18275;BME280;19470;49.322;7.218;2023-10-08T11:33:59;99640.97;;;28.61;52.78
18275;BME280;19470;49.322;7.218;2023-10-08T11:36:27;99635.66;;;29.25;51.25
18275;BME280;19470;49.322;7.218;2023-10-08T11:38:57;99639.88;;;28.86;51.72
18275;BME280;19470;49.322;7.218;2023-10-08T11:41:28;99630.72;;;27.70;55.46
18275;BME280;19470;49.322;7.218;2023-10-08T11:43:56;99634.78;;;27.85;54.28
18275;BME280;19470;49.322;7.218;2023-10-08T11:46:24;99620.69;;;29.72;49.06
18275;BME280;19470;49.322;7.218;2023-10-08T11:48:58;99626.00;;;28.67;52.33
18275;BME280;19470;49.322;7.218;2023-10-08T11:51:30;99627.03;;;27.96;53.79
18275;BME280;19470;49.322;7.218;2023-10-08T11:53:59;99623.72;;;29.42;50.23
18275;BME280;19470;49.322;7.218;2023-10-08T11:56:26;99615.22;;;29.32;49.61
18275;BME280;19470;49.322;7.218;2023-10-08T11:58:53;99628.59;;;27.34;54.27
18275;BME280;19470;49.322;7.218;2023-10-08T12:01:22;99632.47;;;28.87;49.88
18275;BME280;19470;49.322;7.218;2023-10-08T12:03:49;99627.66;;;27.51;52.07
18275;BME280;19470;49.322;7.218;2023-10-08T12:06:16;99620.94;;;27.27;53.01
18275;BME280;19470;49.322;7.218;2023-10-08T12:08:44;99617.78;;;29.65;48.31
18275;BME280;19470;49.322;7.218;2023-10-08T12:11:13;99610.59;;;30.44;46.19
18275;BME280;19470;49.322;7.218;2023-10-08T12:13:55;99617.22;;;29.35;48.26
18275;BME280;19470;49.322;7.218;2023-10-08T12:16:22;99619.88;;;28.94;49.38
18275;BME280;19470;49.322;7.218;2023-10-08T12:18:49;99615.25;;;30.60;46.16
18275;BME280;19470;49.322;7.218;2023-10-08T12:21:19;99611.38;;;30.61;45.94
18275;BME280;19470;49.322;7.218;2023-10-08T12:23:47;99610.59;;;28.95;50.07
18275;BME280;19470;49.322;7.218;2023-10-08T12:26:16;99603.78;;;30.70;46.41
18275;BME280;19470;49.322;7.218;2023-10-08T12:28:45;99603.47;;;31.58;43.34
18275;BME280;19470;49.322;7.218;2023-10-08T12:31:13;99605.69;;;28.31;50.92
18275;BME280;19470;49.322;7.218;2023-10-08T12:33:41;99599.34;;;27.31;53.65
18275;BME280;19470;49.322;7.218;2023-10-08T12:36:10;99601.94;;;27.90;51.37
18275;BME280;19470;49.322;7.218;2023-10-08T12:38:42;99595.41;;;27.62;51.61
18275;BME280;19470;49.322;7.218;2023-10-08T12:41:14;99589.78;;;27.88;52.79
18275;BME280;19470;49.322;7.218;2023-10-08T12:43:54;99591.00;;;28.69;52.15
18275;BME280;19470;49.322;7.218;2023-10-08T12:46:23;99595.00;;;28.26;50.54
18275;BME280;19470;49.322;7.218;2023-10-08T12:49:07;99587.19;;;28.24;52.74
18275;BME280;19470;49.322;7.218;2023-10-08T12:51:36;99585.81;;;26.84;55.08
18275;BME280;19470;49.322;7.218;2023-10-08T12:54:07;99584.06;;;27.81;52.24
18275;BME280;19470;49.322;7.218;2023-10-08T12:56:37;99583.78;;;27.94;53.10
18275;BME280;19470;49.322;7.218;2023-10-08T12:59:24;99594.03;;;27.56;54.77
18275;BME280;19470;49.322;7.218;2023-10-08T13:01:55;99586.13;;;26.91;54.86
18275;BME280;19470;49.322;7.218;2023-10-08T13:04:24;99588.97;;;27.66;54.07
18275;BME280;19470;49.322;7.218;2023-10-08T13:06:53;99585.69;;;27.82;53.00
18275;BME280;19470;49.322;7.218;2023-10-08T13:09:22;99582.81;;;28.69;50.34
18275;BME280;19470;49.322;7.218;2023-10-08T13:11:50;99587.34;;;27.95;52.25
18275;BME280;19470;49.322;7.218;2023-10-08T13:14:22;99589.84;;;28.12;51.02
18275;BME280;19470;49.322;7.218;2023-10-08T13:16:50;99581.28;;;27.47;52.05